sensor_id;sensor_type;location;lat;lon;timestamp;P1;durP1;ratioP1;P2;durP2;ratioP2
32399;SDS011;45045;45.440;9.178;2024-02-14T00:02:23;23.33;;;14.70;;
32399;SDS011;45045;45.440;9.178;2024-02-14T00:04:51;21.08;;;14.75;;
32399;SDS011;45045;45.440;9.178;2024-02-14T00:07:18;20.25;;;13.95;;
32399;SDS011;45045;45.440;9.178;2024-02-14T00:09:44;24.35;;;15.13;;
32399;SDS011;45045;45.440;9.178;2024-02-14T00:12:09;28.23;;;15.15;;
32399;SDS011;45045;45.440;9.178;2024-02-14T00:14:36;22.73;;;14.95;;
32399;SDS011;45045;45.440;9.178;2024-02-14T00:17:02;24.55;;;14.88;;
32399;SDS011;45045;45.440;9.178;2024-02-14T00:19:29;22.45;;;15.18;;
32399;SDS011;45045;45.440;9.178;2024-02-14T00:21:54;24.42;;;14.93;;
32399;SDS011;45045;45.440;9.178;2024-02-14T00:24:20;21.77;;;14.60;;
32399;SDS011;45045;45.440;9.178;2024-02-14T00:26:45;23.67;;;14.77;;
32399;SDS011;45045;45.440;9.178;2024-02-14T00:29:11;22.40;;;14.80;;
32399;SDS011;45045;45.440;9.178;2024-02-14T00:31:37;21.75;;;15.13;;
32399;SDS011;45045;45.440;9.178;2024-02-14T00:34:02;22.27;;;13.48;;
32399;SDS011;45045;45.440;9.178;2024-02-14T00:36:29;26.35;;;14.82;;
32399;SDS011;45045;45.440;9.178;2024-02-14T00:38:55;22.52;;;13.88;;
32399;SDS011;45045;45.440;9.178;2024-02-14T00:41:20;26.95;;;14.02;;
32399;SDS011;45045;45.440;9.178;2024-02-14T00:43:46;20.65;;;13.50;;
32399;SDS011;45045;45.440;9.178;2024-02-14T00:46:15;23.35;;;14.48;;
32399;SDS011;45045;45.440;9.178;2024-02-14T00:48:42;21.10;;;14.20;;
32399;SDS011;45045;45.440;9.178;2024-02-14T00:51:09;23.35;;;14.85;;
32399;SDS011;45045;45.440;9.178;2024-02-14T00:53:35;23.00;;;13.75;;
32399;SDS011;45045;45.440;9.178;2024-02-14T00:56:00;22.00;;;13.43;;
32399;SDS011;45045;45.440;9.178;2024-02-14T00:58:26;21.10;;;13.85;;
32399;SDS011;45045;45.440;9.178;2024-02-14T01:00:52;21.23;;;14.38;;
32399;SDS011;45045;45.440;9.178;2024-02-14T01:03:17;23.83;;;13.77;;
32399;SDS011;45045;45.440;9.178;2024-02-14T01:05:43;21.20;;;14.15;;
32399;SDS011;45045;45.440;9.178;2024-02-14T01:08:08;21.27;;;13.48;;
32399;SDS011;45045;45.440;9.178;2024-02-14T01:10:34;22.35;;;13.90;;
32399;SDS011;45045;45.440;9.178;2024-02-14T01:13:00;19.17;;;13.38;;
32399;SDS011;45045;45.440;9.178;2024-02-14T01:15:26;20.85;;;13.80;;
32399;SDS011;45045;45.440;9.178;2024-02-14T01:17:51;22.52;;;13.90;;
32399;SDS011;45045;45.440;9.178;2024-02-14T01:20:17;21.92;;;13.70;;
32399;SDS011;45045;45.440;9.178;2024-02-14T01:22:43;21.02;;;13.32;;
32399;SDS011;45045;45.440;9.178;2024-02-14T01:25:11;22.75;;;13.68;;
32399;SDS011;45045;45.440;9.178;2024-02-14T01:27:37;22.52;;;14.02;;
32399;SDS011;45045;45.440;9.178;2024-02-14T01:30:02;20.35;;;13.15;;
32399;SDS011;45045;45.440;9.178;2024-02-14T01:32:29;21.83;;;13.95;;
32399;SDS011;45045;45.440;9.178;2024-02-14T01:34:55;24.17;;;13.57;;
32399;SDS011;45045;45.440;9.178;2024-02-14T01:37:20;20.20;;;13.57;;
32399;SDS011;45045;45.440;9.178;2024-02-14T01:39:46;22.27;;;13.15;;
32399;SDS011;45045;45.440;9.178;2024-02-14T01:42:12;22.58;;;13.85;;
32399;SDS011;45045;45.440;9.178;2024-02-14T01:44:37;20.08;;;14.07;;
32399;SDS011;45045;45.440;9.178;2024-02-14T01:47:03;19.65;;;14.00;;
32399;SDS011;45045;45.440;9.178;2024-02-14T01:49:30;22.08;;;13.60;;
32399;SDS011;45045;45.440;9.178;2024-02-14T01:51:58;27.55;;;14.52;;
32399;SDS011;45045;45.440;9.178;2024-02-14T01:54:26;19.33;;;13.48;;
32399;SDS011;45045;45.440;9.178;2024-02-14T01:56:52;21.85;;;13.55;;
32399;SDS011;45045;45.440;9.178;2024-02-14T01:59:19;20.60;;;13.48;;
32399;SDS011;45045;45.440;9.178;2024-02-14T02:01:45;21.60;;;13.48;;
32399;SDS011;45045;45.440;9.178;2024-02-14T02:04:11;19.65;;;13.38;;
32399;SDS011;45045;45.440;9.178;2024-02-14T02:06:37;24.00;;;13.98;;
32399;SDS011;45045;45.440;9.178;2024-02-14T02:09:03;21.02;;;13.40;;
32399;SDS011;45045;45.440;9.178;2024-02-14T02:11:30;24.20;;;14.80;;
32399;SDS011;45045;45.440;9.178;2024-02-14T02:13:55;21.27;;;13.05;;
32399;SDS011;45045;45.440;9.178;2024-02-14T02:16:21;18.33;;;13.25;;
32399;SDS011;45045;45.440;9.178;2024-02-14T02:18:47;19.58;;;13.27;;
32399;SDS011;45045;45.440;9.178;2024-02-14T02:21:13;18.88;;;13.00;;
32399;SDS011;45045;45.440;9.178;2024-02-14T02:23:39;21.17;;;13.90;;
32399;SDS011;45045;45.440;9.178;2024-02-14T02:26:09;21.17;;;12.73;;
32399;SDS011;45045;45.440;9.178;2024-02-14T02:28:36;22.08;;;13.13;;
32399;SDS011;45045;45.440;9.178;2024-02-14T02:31:01;17.25;;;11.93;;
32399;SDS011;45045;45.440;9.178;2024-02-14T02:33:27;18.02;;;12.25;;
32399;SDS011;45045;45.440;9.178;2024-02-14T02:35:53;17.48;;;11.85;;
32399;SDS011;45045;45.440;9.178;2024-02-14T02:38:18;17.45;;;12.52;;
32399;SDS011;45045;45.440;9.178;2024-02-14T02:40:46;20.00;;;13.02;;
32399;SDS011;45045;45.440;9.178;2024-02-14T02:43:12;20.58;;;13.57;;
32399;SDS011;45045;45.440;9.178;2024-02-14T02:45:38;21.30;;;13.18;;
32399;SDS011;45045;45.440;9.178;2024-02-14T02:48:04;21.65;;;13.25;;
32399;SDS011;45045;45.440;9.178;2024-02-14T02:50:30;18.95;;;12.98;;
32399;SDS011;45045;45.440;9.178;2024-02-14T02:52:55;21.80;;;13.70;;
32399;SDS011;45045;45.440;9.178;2024-02-14T02:55:22;19.42;;;12.70;;
32399;SDS011;45045;45.440;9.178;2024-02-14T02:57:48;17.40;;;11.98;;
32399;SDS011;45045;45.440;9.178;2024-02-14T03:00:14;21.67;;;13.82;;
32399;SDS011;45045;45.440;9.178;2024-02-14T03:02:41;19.25;;;12.95;;
32399;SDS011;45045;45.440;9.178;2024-02-14T03:05:09;21.15;;;13.52;;
32399;SDS011;45045;45.440;9.178;2024-02-14T03:07:38;20.27;;;13.27;;
32399;SDS011;45045;45.440;9.178;2024-02-14T03:10:04;18.58;;;13.50;;
32399;SDS011;45045;45.440;9.178;2024-02-14T03:12:30;21.20;;;13.68;;
32399;SDS011;45045;45.440;9.178;2024-02-14T03:14:57;23.58;;;13.30;;
32399;SDS011;45045;45.440;9.178;2024-02-14T03:17:25;20.25;;;14.48;;
32399;SDS011;45045;45.440;9.178;2024-02-14T03:19:53;20.27;;;12.85;;
32399;SDS011;45045;45.440;9.178;2024-02-14T03:22:21;18.60;;;13.32;;
32399;SDS011;45045;45.440;9.178;2024-02-14T03:24:47;19.58;;;12.85;;
32399;SDS011;45045;45.440;9.178;2024-02-14T03:27:13;23.42;;;14.30;;
32399;SDS011;45045;45.440;9.178;2024-02-14T03:29:38;20.60;;;13.48;;
32399;SDS011;45045;45.440;9.178;2024-02-14T03:32:05;19.73;;;12.50;;
32399;SDS011;45045;45.440;9.178;2024-02-14T03:34:31;20.13;;;13.68;;
32399;SDS011;45045;45.440;9.178;2024-02-14T03:37:00;21.30;;;13.43;;
32399;SDS011;45045;45.440;9.178;2024-02-14T03:39:27;21.45;;;13.73;;
32399;SDS011;45045;45.440;9.178;2024-02-14T03:41:56;20.98;;;14.00;;
32399;SDS011;45045;45.440;9.178;2024-02-14T03:44:22;20.50;;;14.50;;
32399;SDS011;45045;45.440;9.178;2024-02-14T03:46:48;21.23;;;13.98;;
32399;SDS011;45045;45.440;9.178;2024-02-14T03:49:14;20.50;;;14.60;;
32399;SDS011;45045;45.440;9.178;2024-02-14T03:51:39;22.63;;;14.93;;
32399;SDS011;45045;45.440;9.178;2024-02-14T03:54:05;21.58;;;13.93;;
32399;SDS011;45045;45.440;9.178;2024-02-14T03:56:31;23.73;;;13.98;;
32399;SDS011;45045;45.440;9.178;2024-02-14T03:58:58;20.27;;;14.05;;
32399;SDS011;45045;45.440;9.178;2024-02-14T04:01:24;21.40;;;14.40;;
32399;SDS011;45045;45.440;9.178;2024-02-14T04:03:50;22.40;;;15.05;;
32399;SDS011;45045;45.440;9.178;2024-02-14T04:06:15;20.88;;;13.77;;
32399;SDS011;45045;45.440;9.178;2024-02-14T04:08:42;25.05;;;13.82;;
32399;SDS011;45045;45.440;9.178;2024-02-14T04:11:08;20.75;;;14.25;;
32399;SDS011;45045;45.440;9.178;2024-02-14T04:13:34;21.30;;;14.02;;
32399;SDS011;45045;45.440;9.178;2024-02-14T04:16:00;20.75;;;14.50;;
32399;SDS011;45045;45.440;9.178;2024-02-14T04:18:25;23.35;;;15.20;;
32399;SDS011;45045;45.440;9.178;2024-02-14T04:20:51;22.30;;;14.40;;
32399;SDS011;45045;45.440;9.178;2024-02-14T04:23:17;22.50;;;14.15;;
32399;SDS011;45045;45.440;9.178;2024-02-14T04:25:42;24.45;;;13.93;;
32399;SDS011;45045;45.440;9.178;2024-02-14T04:28:08;21.23;;;13.98;;
32399;SDS011;45045;45.440;9.178;2024-02-14T04:30:37;18.33;;;14.05;;
32399;SDS011;45045;45.440;9.178;2024-02-14T04:33:03;25.33;;;15.38;;
32399;SDS011;45045;45.440;9.178;2024-02-14T04:35:29;20.95;;;13.05;;
32399;SDS011;45045;45.440;9.178;2024-02-14T04:37:55;22.95;;;13.88;;
32399;SDS011;45045;45.440;9.178;2024-02-14T04:40:21;20.65;;;13.25;;
32399;SDS011;45045;45.440;9.178;2024-02-14T04:42:46;21.15;;;14.20;;
32399;SDS011;45045;45.440;9.178;2024-02-14T04:45:12;19.75;;;13.98;;
32399;SDS011;45045;45.440;9.178;2024-02-14T04:47:38;22.77;;;14.93;;
32399;SDS011;45045;45.440;9.178;2024-02-14T04:50:04;19.73;;;14.30;;
32399;SDS011;45045;45.440;9.178;2024-02-14T04:52:30;18.77;;;13.68;;
32399;SDS011;45045;45.440;9.178;2024-02-14T04:54:55;20.30;;;14.02;;
32399;SDS011;45045;45.440;9.178;2024-02-14T04:57:21;25.85;;;15.20;;
32399;SDS011;45045;45.440;9.178;2024-02-14T04:59:47;19.90;;;14.90;;
32399;SDS011;45045;45.440;9.178;2024-02-14T05:02:13;21.58;;;14.25;;
32399;SDS011;45045;45.440;9.178;2024-02-14T05:04:38;19.98;;;13.88;;
32399;SDS011;45045;45.440;9.178;2024-02-14T05:07:04;24.85;;;15.00;;
32399;SDS011;45045;45.440;9.178;2024-02-14T05:09:30;22.58;;;14.75;;
32399;SDS011;45045;45.440;9.178;2024-02-14T05:11:56;20.08;;;13.80;;
32399;SDS011;45045;45.440;9.178;2024-02-14T05:14:21;21.38;;;14.30;;
32399;SDS011;45045;45.440;9.178;2024-02-14T05:16:48;24.98;;;14.07;;
32399;SDS011;45045;45.440;9.178;2024-02-14T05:19:13;21.67;;;14.50;;
32399;SDS011;45045;45.440;9.178;2024-02-14T05:21:39;20.33;;;13.98;;
32399;SDS011;45045;45.440;9.178;2024-02-14T05:24:05;22.20;;;14.23;;
32399;SDS011;45045;45.440;9.178;2024-02-14T05:26:31;17.85;;;13.77;;
32399;SDS011;45045;45.440;9.178;2024-02-14T05:28:57;19.25;;;13.73;;
32399;SDS011;45045;45.440;9.178;2024-02-14T05:31:24;25.52;;;15.00;;
32399;SDS011;45045;45.440;9.178;2024-02-14T05:33:49;17.95;;;13.38;;
32399;SDS011;45045;45.440;9.178;2024-02-14T05:36:15;21.33;;;13.82;;
32399;SDS011;45045;45.440;9.178;2024-02-14T05:38:40;21.23;;;14.18;;
32399;SDS011;45045;45.440;9.178;2024-02-14T05:41:06;22.63;;;14.18;;
32399;SDS011;45045;45.440;9.178;2024-02-14T05:43:32;21.65;;;13.90;;
32399;SDS011;45045;45.440;9.178;2024-02-14T05:45:59;21.02;;;14.38;;
32399;SDS011;45045;45.440;9.178;2024-02-14T05:48:25;24.17;;;14.30;;
32399;SDS011;45045;45.440;9.178;2024-02-14T05:50:51;23.38;;;14.80;;
32399;SDS011;45045;45.440;9.178;2024-02-14T05:53:16;25.63;;;15.30;;
32399;SDS011;45045;45.440;9.178;2024-02-14T05:55:42;23.85;;;15.73;;
32399;SDS011;45045;45.440;9.178;2024-02-14T05:58:08;27.77;;;14.93;;
32399;SDS011;45045;45.440;9.178;2024-02-14T06:00:34;24.30;;;15.60;;
32399;SDS011;45045;45.440;9.178;2024-02-14T06:02:59;22.60;;;14.65;;
32399;SDS011;45045;45.440;9.178;2024-02-14T06:05:25;22.40;;;14.48;;
32399;SDS011;45045;45.440;9.178;2024-02-14T06:07:50;21.85;;;14.43;;
32399;SDS011;45045;45.440;9.178;2024-02-14T06:10:16;22.73;;;15.43;;
32399;SDS011;45045;45.440;9.178;2024-02-14T06:12:42;22.67;;;14.88;;
32399;SDS011;45045;45.440;9.178;2024-02-14T06:15:09;25.35;;;14.18;;
32399;SDS011;45045;45.440;9.178;2024-02-14T06:17:35;23.13;;;14.43;;
32399;SDS011;45045;45.440;9.178;2024-02-14T06:20:00;23.95;;;14.20;;
32399;SDS011;45045;45.440;9.178;2024-02-14T06:22:31;22.20;;;15.02;;
32399;SDS011;45045;45.440;9.178;2024-02-14T06:24:57;23.95;;;15.27;;
32399;SDS011;45045;45.440;9.178;2024-02-14T06:27:23;21.13;;;14.77;;
32399;SDS011;45045;45.440;9.178;2024-02-14T06:29:49;21.65;;;15.30;;
32399;SDS011;45045;45.440;9.178;2024-02-14T06:32:16;26.60;;;16.75;;
32399;SDS011;45045;45.440;9.178;2024-02-14T06:34:41;27.95;;;16.20;;
32399;SDS011;45045;45.440;9.178;2024-02-14T06:37:07;26.73;;;16.02;;
32399;SDS011;45045;45.440;9.178;2024-02-14T06:39:32;26.27;;;15.77;;
32399;SDS011;45045;45.440;9.178;2024-02-14T06:41:58;25.33;;;14.65;;
32399;SDS011;45045;45.440;9.178;2024-02-14T06:44:24;32.75;;;15.88;;
32399;SDS011;45045;45.440;9.178;2024-02-14T06:46:49;28.25;;;14.57;;
32399;SDS011;45045;45.440;9.178;2024-02-14T06:49:15;23.08;;;13.77;;
32399;SDS011;45045;45.440;9.178;2024-02-14T06:51:42;18.65;;;13.00;;
32399;SDS011;45045;45.440;9.178;2024-02-14T06:54:07;25.45;;;14.40;;
32399;SDS011;45045;45.440;9.178;2024-02-14T06:56:33;24.83;;;14.40;;
32399;SDS011;45045;45.440;9.178;2024-02-14T06:58:59;22.10;;;14.23;;
32399;SDS011;45045;45.440;9.178;2024-02-14T07:01:31;27.13;;;15.82;;
32399;SDS011;45045;45.440;9.178;2024-02-14T07:06:23;20.17;;;14.13;;
32399;SDS011;45045;45.440;9.178;2024-02-14T07:08:48;19.63;;;13.48;;
32399;SDS011;45045;45.440;9.178;2024-02-14T07:11:14;20.30;;;13.52;;
32399;SDS011;45045;45.440;9.178;2024-02-14T07:13:43;21.70;;;13.77;;
32399;SDS011;45045;45.440;9.178;2024-02-14T07:16:08;24.70;;;14.95;;
32399;SDS011;45045;45.440;9.178;2024-02-14T07:18:37;26.92;;;14.65;;
32399;SDS011;45045;45.440;9.178;2024-02-14T07:21:06;22.17;;;14.48;;
32399;SDS011;45045;45.440;9.178;2024-02-14T07:23:31;21.65;;;13.23;;
32399;SDS011;45045;45.440;9.178;2024-02-14T07:25:58;21.85;;;13.73;;
32399;SDS011;45045;45.440;9.178;2024-02-14T07:28:25;19.85;;;13.32;;
32399;SDS011;45045;45.440;9.178;2024-02-14T07:30:51;25.95;;;12.77;;
32399;SDS011;45045;45.440;9.178;2024-02-14T07:33:17;36.65;;;24.48;;
32399;SDS011;45045;45.440;9.178;2024-02-14T07:35:51;24.05;;;15.50;;
32399;SDS011;45045;45.440;9.178;2024-02-14T07:38:23;33.10;;;20.17;;
32399;SDS011;45045;45.440;9.178;2024-02-14T07:40:52;21.25;;;13.85;;
32399;SDS011;45045;45.440;9.178;2024-02-14T07:43:17;18.38;;;13.10;;
32399;SDS011;45045;45.440;9.178;2024-02-14T07:45:46;23.98;;;14.90;;
32399;SDS011;45045;45.440;9.178;2024-02-14T07:48:13;23.70;;;15.02;;
32399;SDS011;45045;45.440;9.178;2024-02-14T07:50:38;26.52;;;14.55;;
32399;SDS011;45045;45.440;9.178;2024-02-14T07:53:04;22.75;;;14.23;;
32399;SDS011;45045;45.440;9.178;2024-02-14T07:55:31;22.38;;;14.55;;
32399;SDS011;45045;45.440;9.178;2024-02-14T07:57:56;23.63;;;15.85;;
32399;SDS011;45045;45.440;9.178;2024-02-14T08:00:22;21.95;;;15.07;;
32399;SDS011;45045;45.440;9.178;2024-02-14T08:02:51;23.25;;;14.35;;
32399;SDS011;45045;45.440;9.178;2024-02-14T08:05:17;21.13;;;15.52;;
32399;SDS011;45045;45.440;9.178;2024-02-14T08:07:44;27.77;;;15.15;;
32399;SDS011;45045;45.440;9.178;2024-02-14T08:10:14;23.00;;;15.23;;
32399;SDS011;45045;45.440;9.178;2024-02-14T08:12:40;22.25;;;15.20;;
32399;SDS011;45045;45.440;9.178;2024-02-14T08:15:05;25.65;;;15.48;;
32399;SDS011;45045;45.440;9.178;2024-02-14T08:17:32;22.27;;;15.35;;
32399;SDS011;45045;45.440;9.178;2024-02-14T08:19:58;29.98;;;15.65;;
32399;SDS011;45045;45.440;9.178;2024-02-14T08:22:24;21.33;;;15.40;;
32399;SDS011;45045;45.440;9.178;2024-02-14T08:24:51;23.17;;;15.00;;
32399;SDS011;45045;45.440;9.178;2024-02-14T08:27:17;25.92;;;15.18;;
32399;SDS011;45045;45.440;9.178;2024-02-14T08:29:43;22.20;;;14.70;;
32399;SDS011;45045;45.440;9.178;2024-02-14T08:32:08;20.08;;;14.88;;
32399;SDS011;45045;45.440;9.178;2024-02-14T08:34:34;22.67;;;15.05;;
32399;SDS011;45045;45.440;9.178;2024-02-14T08:36:59;26.02;;;15.45;;
32399;SDS011;45045;45.440;9.178;2024-02-14T08:39:25;23.65;;;14.50;;
32399;SDS011;45045;45.440;9.178;2024-02-14T08:41:51;22.17;;;14.43;;
32399;SDS011;45045;45.440;9.178;2024-02-14T08:44:17;21.02;;;15.63;;
32399;SDS011;45045;45.440;9.178;2024-02-14T08:46:43;25.23;;;14.43;;
32399;SDS011;45045;45.440;9.178;2024-02-14T08:49:13;20.42;;;13.68;;
32399;SDS011;45045;45.440;9.178;2024-02-14T08:51:39;23.67;;;13.95;;
32399;SDS011;45045;45.440;9.178;2024-02-14T08:54:04;19.60;;;13.55;;
32399;SDS011;45045;45.440;9.178;2024-02-14T08:56:31;21.83;;;14.38;;
32399;SDS011;45045;45.440;9.178;2024-02-14T08:58:59;19.45;;;13.52;;
32399;SDS011;45045;45.440;9.178;2024-02-14T09:01:27;20.75;;;12.93;;
32399;SDS011;45045;45.440;9.178;2024-02-14T09:03:56;21.58;;;12.80;;
32399;SDS011;45045;45.440;9.178;2024-02-14T09:06:22;18.30;;;12.30;;
32399;SDS011;45045;45.440;9.178;2024-02-14T09:08:48;22.58;;;12.68;;
32399;SDS011;45045;45.440;9.178;2024-02-14T09:11:15;19.70;;;12.40;;
32399;SDS011;45045;45.440;9.178;2024-02-14T09:13:41;25.63;;;17.00;;
32399;SDS011;45045;45.440;9.178;2024-02-14T09:16:10;28.77;;;14.77;;
32399;SDS011;45045;45.440;9.178;2024-02-14T09:18:36;28.90;;;17.85;;
32399;SDS011;45045;45.440;9.178;2024-02-14T09:21:02;26.67;;;15.88;;
32399;SDS011;45045;45.440;9.178;2024-02-14T09:23:31;28.65;;;16.73;;
32399;SDS011;45045;45.440;9.178;2024-02-14T09:25:57;24.80;;;16.52;;
32399;SDS011;45045;45.440;9.178;2024-02-14T09:28:23;33.83;;;18.10;;
32399;SDS011;45045;45.440;9.178;2024-02-14T09:30:50;20.42;;;15.15;;
32399;SDS011;45045;45.440;9.178;2024-02-14T09:33:16;26.50;;;17.80;;
32399;SDS011;45045;45.440;9.178;2024-02-14T09:35:42;22.83;;;13.07;;
32399;SDS011;45045;45.440;9.178;2024-02-14T09:38:12;20.15;;;12.52;;
32399;SDS011;45045;45.440;9.178;2024-02-14T09:40:40;19.08;;;12.23;;
32399;SDS011;45045;45.440;9.178;2024-02-14T09:43:08;19.38;;;12.32;;
32399;SDS011;45045;45.440;9.178;2024-02-14T09:45:53;18.88;;;13.35;;
32399;SDS011;45045;45.440;9.178;2024-02-14T09:48:19;24.35;;;14.90;;
32399;SDS011;45045;45.440;9.178;2024-02-14T09:50:46;19.50;;;11.95;;
32399;SDS011;45045;45.440;9.178;2024-02-14T09:53:14;20.15;;;12.82;;
32399;SDS011;45045;45.440;9.178;2024-02-14T09:55:40;18.08;;;12.50;;
32399;SDS011;45045;45.440;9.178;2024-02-14T09:58:07;17.95;;;12.50;;
32399;SDS011;45045;45.440;9.178;2024-02-14T10:00:33;20.10;;;12.52;;
32399;SDS011;45045;45.440;9.178;2024-02-14T10:02:59;15.38;;;12.05;;
32399;SDS011;45045;45.440;9.178;2024-02-14T10:05:25;19.83;;;12.50;;
32399;SDS011;45045;45.440;9.178;2024-02-14T10:07:51;16.92;;;11.52;;
32399;SDS011;45045;45.440;9.178;2024-02-14T10:10:16;20.67;;;15.38;;
32399;SDS011;45045;45.440;9.178;2024-02-14T10:12:42;15.60;;;10.32;;
32399;SDS011;45045;45.440;9.178;2024-02-14T10:15:08;19.75;;;13.73;;
32399;SDS011;45045;45.440;9.178;2024-02-14T10:17:34;17.33;;;10.95;;
32399;SDS011;45045;45.440;9.178;2024-02-14T10:20:00;13.48;;;9.73;;
32399;SDS011;45045;45.440;9.178;2024-02-14T10:22:36;12.55;;;9.88;;
32399;SDS011;45045;45.440;9.178;2024-02-14T10:25:03;13.85;;;9.57;;
32399;SDS011;45045;45.440;9.178;2024-02-14T10:27:33;14.52;;;10.07;;
32399;SDS011;45045;45.440;9.178;2024-02-14T10:30:09;15.25;;;9.95;;
32399;SDS011;45045;45.440;9.178;2024-02-14T10:32:39;18.27;;;12.27;;
32399;SDS011;45045;45.440;9.178;2024-02-14T10:35:13;15.20;;;9.93;;
32399;SDS011;45045;45.440;9.178;2024-02-14T10:37:40;13.57;;;9.80;;
32399;SDS011;45045;45.440;9.178;2024-02-14T10:40:06;14.60;;;10.02;;
32399;SDS011;45045;45.440;9.178;2024-02-14T10:42:33;13.25;;;9.90;;
32399;SDS011;45045;45.440;9.178;2024-02-14T10:44:59;18.92;;;10.57;;
32399;SDS011;45045;45.440;9.178;2024-02-14T10:47:34;17.95;;;10.50;;
32399;SDS011;45045;45.440;9.178;2024-02-14T10:50:02;14.32;;;10.98;;
32399;SDS011;45045;45.440;9.178;2024-02-14T10:52:36;15.15;;;10.50;;
32399;SDS011;45045;45.440;9.178;2024-02-14T10:55:05;19.83;;;11.35;;
32399;SDS011;45045;45.440;9.178;2024-02-14T10:57:31;14.98;;;10.93;;
32399;SDS011;45045;45.440;9.178;2024-02-14T11:00:02;20.13;;;12.23;;
32399;SDS011;45045;45.440;9.178;2024-02-14T11:02:31;19.55;;;12.65;;
32399;SDS011;45045;45.440;9.178;2024-02-14T11:04:57;18.27;;;13.27;;
32399;SDS011;45045;45.440;9.178;2024-02-14T11:07:23;21.05;;;14.63;;
32399;SDS011;45045;45.440;9.178;2024-02-14T11:10:12;24.80;;;20.55;;
32399;SDS011;45045;45.440;9.178;2024-02-14T11:12:38;16.75;;;13.68;;
32399;SDS011;45045;45.440;9.178;2024-02-14T11:17:50;20.77;;;13.90;;
32399;SDS011;45045;45.440;9.178;2024-02-14T11:20:19;19.00;;;13.20;;
32399;SDS011;45045;45.440;9.178;2024-02-14T11:22:53;19.58;;;13.40;;
32399;SDS011;45045;45.440;9.178;2024-02-14T11:25:23;22.30;;;14.93;;
32399;SDS011;45045;45.440;9.178;2024-02-14T11:27:55;20.75;;;14.73;;
32399;SDS011;45045;45.440;9.178;2024-02-14T11:30:34;20.02;;;14.65;;
32399;SDS011;45045;45.440;9.178;2024-02-14T11:33:33;18.98;;;13.95;;
32399;SDS011;45045;45.440;9.178;2024-02-14T11:38:19;21.90;;;16.23;;
32399;SDS011;45045;45.440;9.178;2024-02-14T11:40:45;18.35;;;13.65;;
32399;SDS011;45045;45.440;9.178;2024-02-14T11:43:18;17.25;;;12.50;;
32399;SDS011;45045;45.440;9.178;2024-02-14T11:45:48;20.40;;;12.43;;
32399;SDS011;45045;45.440;9.178;2024-02-14T11:48:22;16.23;;;12.25;;
32399;SDS011;45045;45.440;9.178;2024-02-14T11:50:49;20.20;;;13.30;;
32399;SDS011;45045;45.440;9.178;2024-02-14T11:53:17;22.77;;;12.80;;
32399;SDS011;45045;45.440;9.178;2024-02-14T11:55:44;16.23;;;11.90;;
32399;SDS011;45045;45.440;9.178;2024-02-14T11:58:13;17.98;;;11.95;;
32399;SDS011;45045;45.440;9.178;2024-02-14T12:00:41;16.02;;;12.23;;
32399;SDS011;45045;45.440;9.178;2024-02-14T12:03:21;17.55;;;11.73;;
32399;SDS011;45045;45.440;9.178;2024-02-14T12:05:49;16.58;;;12.43;;
32399;SDS011;45045;45.440;9.178;2024-02-14T12:08:16;17.35;;;12.55;;
32399;SDS011;45045;45.440;9.178;2024-02-14T12:10:58;16.58;;;12.02;;
32399;SDS011;45045;45.440;9.178;2024-02-14T12:13:24;16.58;;;11.35;;
32399;SDS011;45045;45.440;9.178;2024-02-14T12:15:50;14.77;;;11.13;;
32399;SDS011;45045;45.440;9.178;2024-02-14T12:18:17;18.25;;;12.70;;
32399;SDS011;45045;45.440;9.178;2024-02-14T12:20:44;18.58;;;12.18;;
32399;SDS011;45045;45.440;9.178;2024-02-14T12:23:17;17.85;;;11.88;;
32399;SDS011;45045;45.440;9.178;2024-02-14T12:25:44;15.10;;;11.68;;
32399;SDS011;45045;45.440;9.178;2024-02-14T12:28:20;17.27;;;11.60;;
32399;SDS011;45045;45.440;9.178;2024-02-14T12:30:46;16.52;;;10.45;;
32399;SDS011;45045;45.440;9.178;2024-02-14T12:33:15;14.27;;;9.73;;
32399;SDS011;45045;45.440;9.178;2024-02-14T12:35:44;14.77;;;10.02;;
32399;SDS011;45045;45.440;9.178;2024-02-14T12:38:11;19.77;;;13.18;;
32399;SDS011;45045;45.440;9.178;2024-02-14T12:40:38;23.88;;;16.52;;
32399;SDS011;45045;45.440;9.178;2024-02-14T12:43:09;17.98;;;12.50;;
32399;SDS011;45045;45.440;9.178;2024-02-14T12:45:35;19.35;;;12.30;;
32399;SDS011;45045;45.440;9.178;2024-02-14T12:48:02;19.52;;;13.32;;
32399;SDS011;45045;45.440;9.178;2024-02-14T12:50:28;18.15;;;13.25;;
32399;SDS011;45045;45.440;9.178;2024-02-14T12:52:55;16.98;;;12.98;;
32399;SDS011;45045;45.440;9.178;2024-02-14T12:55:20;15.00;;;11.85;;
32399;SDS011;45045;45.440;9.178;2024-02-14T12:57:48;15.88;;;10.82;;
32399;SDS011;45045;45.440;9.178;2024-02-14T13:00:14;14.45;;;11.20;;
32399;SDS011;45045;45.440;9.178;2024-02-14T13:02:40;14.68;;;10.35;;
32399;SDS011;45045;45.440;9.178;2024-02-14T13:05:06;14.45;;;10.30;;
32399;SDS011;45045;45.440;9.178;2024-02-14T13:07:32;17.30;;;10.25;;
32399;SDS011;45045;45.440;9.178;2024-02-14T13:09:58;13.57;;;9.75;;
32399;SDS011;45045;45.440;9.178;2024-02-14T13:12:24;16.10;;;11.13;;
32399;SDS011;45045;45.440;9.178;2024-02-14T13:14:49;15.98;;;10.75;;
32399;SDS011;45045;45.440;9.178;2024-02-14T13:17:15;15.90;;;10.48;;
32399;SDS011;45045;45.440;9.178;2024-02-14T13:19:41;12.88;;;9.30;;
32399;SDS011;45045;45.440;9.178;2024-02-14T13:22:08;15.30;;;10.52;;
32399;SDS011;45045;45.440;9.178;2024-02-14T13:24:34;14.27;;;9.48;;
32399;SDS011;45045;45.440;9.178;2024-02-14T13:26:59;13.98;;;9.05;;
32399;SDS011;45045;45.440;9.178;2024-02-14T13:29:25;12.93;;;8.70;;
32399;SDS011;45045;45.440;9.178;2024-02-14T13:31:51;14.63;;;8.20;;
32399;SDS011;45045;45.440;9.178;2024-02-14T13:34:17;12.05;;;8.10;;
32399;SDS011;45045;45.440;9.178;2024-02-14T13:36:45;12.30;;;8.10;;
32399;SDS011;45045;45.440;9.178;2024-02-14T13:39:13;16.77;;;8.85;;
32399;SDS011;45045;45.440;9.178;2024-02-14T13:41:40;10.80;;;7.30;;
32399;SDS011;45045;45.440;9.178;2024-02-14T13:44:08;12.43;;;7.05;;
32399;SDS011;45045;45.440;9.178;2024-02-14T13:46:34;12.85;;;7.82;;
32399;SDS011;45045;45.440;9.178;2024-02-14T13:49:00;11.80;;;7.50;;
32399;SDS011;45045;45.440;9.178;2024-02-14T13:51:26;10.35;;;7.10;;
32399;SDS011;45045;45.440;9.178;2024-02-14T13:53:52;12.57;;;7.45;;
32399;SDS011;45045;45.440;9.178;2024-02-14T13:56:18;11.68;;;8.00;;
32399;SDS011;45045;45.440;9.178;2024-02-14T13:58:46;12.52;;;7.80;;
32399;SDS011;45045;45.440;9.178;2024-02-14T14:01:14;11.98;;;7.93;;
32399;SDS011;45045;45.440;9.178;2024-02-14T14:03:40;12.25;;;8.18;;
32399;SDS011;45045;45.440;9.178;2024-02-14T14:06:06;13.25;;;7.72;;
32399;SDS011;45045;45.440;9.178;2024-02-14T14:08:35;13.55;;;8.57;;
32399;SDS011;45045;45.440;9.178;2024-02-14T14:11:04;12.57;;;8.32;;
32399;SDS011;45045;45.440;9.178;2024-02-14T14:13:30;12.35;;;8.75;;
32399;SDS011;45045;45.440;9.178;2024-02-14T14:15:58;14.75;;;8.70;;
32399;SDS011;45045;45.440;9.178;2024-02-14T14:18:24;13.38;;;8.68;;
32399;SDS011;45045;45.440;9.178;2024-02-14T14:20:50;13.90;;;8.60;;
32399;SDS011;45045;45.440;9.178;2024-02-14T14:23:15;14.38;;;9.40;;
32399;SDS011;45045;45.440;9.178;2024-02-14T14:25:41;12.05;;;8.95;;
32399;SDS011;45045;45.440;9.178;2024-02-14T14:28:07;15.20;;;9.32;;
32399;SDS011;45045;45.440;9.178;2024-02-14T14:30:34;13.18;;;7.95;;